Terminal Aerodrome Forecast
Issued by NWS

Home | Current Version | Previous Version | Text Only | Print | Product List | Glossary On
Versions: 1 2 3 4 5 6 7 8 9 10 11 12 13 14 15 16 17 18 19 20 21 22 23 24 25 26
000
FTUS45 KVEF 060529
TAFLAS
TAF
KLAS 060529Z 0606/0706 18009KT P6SM SCT120 BKN200
     FM061000 20009KT P6SM VCSH SCT100 BKN150
     FM061900 16012G20KT P6SM VCTS BKN070CB BKN100
     FM070400 19008KT P6SM BKN080 BKN120=

USA.gov is the U.S. government's official web portal to all federal, state and local government web resources and services.